sensor_id;sensor_type;location;lat;lon;timestamp;pressure;altitude;pressure_sealevel;temperature;humidity
39301;BME280;25019;42.626;23.380;2022-11-20T00:00:49;93757.06;;;12.51;100.00
39301;BME280;25019;42.626;23.380;2022-11-20T00:03:15;93739.34;;;12.71;100.00
39301;BME280;25019;42.626;23.380;2022-11-20T00:05:40;93753.25;;;12.68;100.00
39301;BME280;25019;42.626;23.380;2022-11-20T00:08:06;93757.69;;;12.78;100.00
39301;BME280;25019;42.626;23.380;2022-11-20T00:10:35;93675.59;;;12.45;100.00
39301;BME280;25019;42.626;23.380;2022-11-20T00:13:07;93726.81;;;13.06;100.00
39301;BME280;25019;42.626;23.380;2022-11-20T00:15:33;93741.97;;;13.40;100.00
39301;BME280;25019;42.626;23.380;2022-11-20T00:17:59;93759.66;;;13.31;100.00
39301;BME280;25019;42.626;23.380;2022-11-20T00:20:25;93721.66;;;13.15;100.00
39301;BME280;25019;42.626;23.380;2022-11-20T00:22:51;93748.50;;;13.58;100.00
39301;BME280;25019;42.626;23.380;2022-11-20T00:25:16;93738.97;;;13.76;100.00
39301;BME280;25019;42.626;23.380;2022-11-20T00:27:42;93627.19;;;13.26;100.00
39301;BME280;25019;42.626;23.380;2022-11-20T00:30:08;93737.38;;;14.19;100.00
39301;BME280;25019;42.626;23.380;2022-11-20T00:32:34;93740.16;;;14.33;100.00
39301;BME280;25019;42.626;23.380;2022-11-20T00:35:00;93720.94;;;14.31;100.00
39301;BME280;25019;42.626;23.380;2022-11-20T00:37:26;93720.06;;;14.54;100.00
39301;BME280;25019;42.626;23.380;2022-11-20T00:39:51;93645.88;;;14.13;100.00
39301;BME280;25019;42.626;23.380;2022-11-20T00:42:17;93741.34;;;14.84;100.00
39301;BME280;25019;42.626;23.380;2022-11-20T00:44:43;93740.75;;;14.87;100.00
39301;BME280;25019;42.626;23.380;2022-11-20T00:47:09;93659.00;;;14.48;100.00
39301;BME280;25019;42.626;23.380;2022-11-20T00:49:36;93733.97;;;14.76;100.00
39301;BME280;25019;42.626;23.380;2022-11-20T00:52:01;93664.22;;;14.39;100.00
39301;BME280;25019;42.626;23.380;2022-11-20T00:54:27;93745.66;;;14.99;100.00
39301;BME280;25019;42.626;23.380;2022-11-20T00:56:53;93701.38;;;14.74;100.00
39301;BME280;25019;42.626;23.380;2022-11-20T00:59:19;93742.03;;;14.90;100.00
39301;BME280;25019;42.626;23.380;2022-11-20T01:01:44;93704.88;;;14.74;100.00
39301;BME280;25019;42.626;23.380;2022-11-20T01:04:10;93732.94;;;14.91;100.00
39301;BME280;25019;42.626;23.380;2022-11-20T01:06:37;93742.72;;;15.15;100.00
39301;BME280;25019;42.626;23.380;2022-11-20T01:09:10;93716.66;;;15.20;100.00
39301;BME280;25019;42.626;23.380;2022-11-20T01:11:39;93739.56;;;15.26;100.00
39301;BME280;25019;42.626;23.380;2022-11-20T01:14:06;93749.19;;;15.27;100.00
39301;BME280;25019;42.626;23.380;2022-11-20T01:16:37;93750.78;;;15.28;100.00
39301;BME280;25019;42.626;23.380;2022-11-20T01:19:05;93598.59;;;14.33;100.00
39301;BME280;25019;42.626;23.380;2022-11-20T01:21:34;93645.94;;;14.46;100.00
39301;BME280;25019;42.626;23.380;2022-11-20T01:24:02;93718.84;;;15.04;100.00
39301;BME280;25019;42.626;23.380;2022-11-20T01:26:30;93727.13;;;15.03;100.00
39301;BME280;25019;42.626;23.380;2022-11-20T01:28:57;93717.25;;;15.03;100.00
39301;BME280;25019;42.626;23.380;2022-11-20T01:31:31;93696.34;;;15.05;100.00
39301;BME280;25019;42.626;23.380;2022-11-20T01:34:01;93687.09;;;14.97;100.00
39301;BME280;25019;42.626;23.380;2022-11-20T01:36:29;93701.44;;;14.88;100.00
39301;BME280;25019;42.626;23.380;2022-11-20T01:38:58;93687.09;;;14.97;100.00
39301;BME280;25019;42.626;23.380;2022-11-20T01:41:25;93687.59;;;15.00;100.00
39301;BME280;25019;42.626;23.380;2022-11-20T01:44:12;93693.84;;;14.95;100.00
39301;BME280;25019;42.626;23.380;2022-11-20T01:46:47;93662.00;;;14.79;100.00
39301;BME280;25019;42.626;23.380;2022-11-20T01:49:24;93682.53;;;14.84;100.00
39301;BME280;25019;42.626;23.380;2022-11-20T01:51:59;93647.16;;;14.73;100.00
39301;BME280;25019;42.626;23.380;2022-11-20T01:54:42;93671.06;;;14.97;100.00
39301;BME280;25019;42.626;23.380;2022-11-20T01:57:11;93665.41;;;14.66;100.00
39301;BME280;25019;42.626;23.380;2022-11-20T01:59:44;93674.97;;;14.72;100.00
39301;BME280;25019;42.626;23.380;2022-11-20T02:02:18;93671.91;;;14.60;100.00
39301;BME280;25019;42.626;23.380;2022-11-20T02:04:44;93683.59;;;14.64;100.00
39301;BME280;25019;42.626;23.380;2022-11-20T02:07:11;93682.22;;;14.66;100.00
39301;BME280;25019;42.626;23.380;2022-11-20T02:09:37;93597.97;;;14.03;100.00
39301;BME280;25019;42.626;23.380;2022-11-20T02:12:03;93722.78;;;14.74;100.00
39301;BME280;25019;42.626;23.380;2022-11-20T02:14:29;93701.81;;;14.62;100.00
39301;BME280;25019;42.626;23.380;2022-11-20T02:16:55;93703.19;;;14.59;100.00
39301;BME280;25019;42.626;23.380;2022-11-20T02:19:28;93703.03;;;14.70;100.00
39301;BME280;25019;42.626;23.380;2022-11-20T02:24:27;93641.03;;;14.87;96.51
39301;BME280;25019;42.626;23.380;2022-11-20T02:26:59;93638.22;;;15.11;94.80
39301;BME280;25019;42.626;23.380;2022-11-20T02:29:40;93569.56;;;14.92;91.19
39301;BME280;25019;42.626;23.380;2022-11-20T02:32:18;93694.56;;;15.90;89.26
39301;BME280;25019;42.626;23.380;2022-11-20T02:34:44;93689.59;;;15.83;91.70
39301;BME280;25019;42.626;23.380;2022-11-20T02:37:09;93709.34;;;15.87;92.88
39301;BME280;25019;42.626;23.380;2022-11-20T02:39:35;93675.81;;;15.62;93.77
39301;BME280;25019;42.626;23.380;2022-11-20T02:42:01;93707.22;;;15.56;94.72
39301;BME280;25019;42.626;23.380;2022-11-20T02:44:27;93659.56;;;15.30;94.61
39301;BME280;25019;42.626;23.380;2022-11-20T02:46:53;93700.66;;;15.48;93.72
39301;BME280;25019;42.626;23.380;2022-11-20T02:49:18;93632.97;;;15.06;93.31
39301;BME280;25019;42.626;23.380;2022-11-20T02:51:44;93708.91;;;15.66;90.34
39301;BME280;25019;42.626;23.380;2022-11-20T02:54:10;93583.75;;;15.21;88.29
39301;BME280;25019;42.626;23.380;2022-11-20T02:56:38;93720.50;;;16.17;86.72
39301;BME280;25019;42.626;23.380;2022-11-20T02:59:03;93707.81;;;16.23;86.21
39301;BME280;25019;42.626;23.380;2022-11-20T03:01:30;93723.75;;;16.42;85.83
39301;BME280;25019;42.626;23.380;2022-11-20T03:03:55;93725.22;;;16.48;84.75
39301;BME280;25019;42.626;23.380;2022-11-20T03:06:21;93660.41;;;16.09;84.12
39301;BME280;25019;42.626;23.380;2022-11-20T03:08:47;93731.03;;;16.64;84.30
39301;BME280;25019;42.626;23.380;2022-11-20T03:11:13;93742.94;;;16.72;84.29
39301;BME280;25019;42.626;23.380;2022-11-20T03:13:38;93710.81;;;16.58;84.38
39301;BME280;25019;42.626;23.380;2022-11-20T03:16:08;93737.97;;;16.65;84.94
39301;BME280;25019;42.626;23.380;2022-11-20T03:18:34;93724.41;;;16.61;84.91
39301;BME280;25019;42.626;23.380;2022-11-20T03:21:00;93704.88;;;16.47;84.35
39301;BME280;25019;42.626;23.380;2022-11-20T03:23:26;93748.34;;;16.58;84.90
39301;BME280;25019;42.626;23.380;2022-11-20T03:25:53;93718.19;;;16.38;84.36
39301;BME280;25019;42.626;23.380;2022-11-20T03:28:19;93737.13;;;16.56;84.47
39301;BME280;25019;42.626;23.380;2022-11-20T03:30:45;93727.31;;;16.51;84.44
39301;BME280;25019;42.626;23.380;2022-11-20T03:33:10;93715.47;;;16.52;83.59
39301;BME280;25019;42.626;23.380;2022-11-20T03:35:36;93725.22;;;16.48;83.56
39301;BME280;25019;42.626;23.380;2022-11-20T03:38:02;93740.09;;;16.54;83.55
39301;BME280;25019;42.626;23.380;2022-11-20T03:40:27;93741.88;;;16.59;83.02
39301;BME280;25019;42.626;23.380;2022-11-20T03:42:53;93690.84;;;16.27;83.10
39301;BME280;25019;42.626;23.380;2022-11-20T03:45:18;93753.28;;;16.65;83.18
39301;BME280;25019;42.626;23.380;2022-11-20T03:47:44;93708.19;;;16.44;82.49
39301;BME280;25019;42.626;23.380;2022-11-20T03:50:11;93746.84;;;16.66;82.14
39301;BME280;25019;42.626;23.380;2022-11-20T03:52:39;93755.66;;;16.66;82.12
39301;BME280;25019;42.626;23.380;2022-11-20T03:55:06;93726.91;;;16.58;82.42
39301;BME280;25019;42.626;23.380;2022-11-20T03:57:31;93745.75;;;16.67;81.90
39301;BME280;25019;42.626;23.380;2022-11-20T03:59:57;93751.22;;;16.61;81.83
39301;BME280;25019;42.626;23.380;2022-11-20T04:02:23;93758.53;;;16.70;80.95
39301;BME280;25019;42.626;23.380;2022-11-20T04:04:48;93701.13;;;16.34;80.89
39301;BME280;25019;42.626;23.380;2022-11-20T04:07:14;93756.03;;;16.73;81.04
39301;BME280;25019;42.626;23.380;2022-11-20T04:09:40;93708.28;;;16.39;80.97
39301;BME280;25019;42.626;23.380;2022-11-20T04:12:05;93758.34;;;16.66;80.66
39301;BME280;25019;42.626;23.380;2022-11-20T04:14:31;93745.53;;;16.63;81.18
39301;BME280;25019;42.626;23.380;2022-11-20T04:16:57;93751.63;;;16.55;81.24
39301;BME280;25019;42.626;23.380;2022-11-20T04:19:22;93770.06;;;16.56;80.71
39301;BME280;25019;42.626;23.380;2022-11-20T04:21:48;93777.53;;;16.59;80.64
39301;BME280;25019;42.626;23.380;2022-11-20T04:24:13;93754.09;;;16.51;80.52
39301;BME280;25019;42.626;23.380;2022-11-20T04:26:39;93754.91;;;16.52;80.64
39301;BME280;25019;42.626;23.380;2022-11-20T04:29:05;93779.59;;;16.62;80.34
39301;BME280;25019;42.626;23.380;2022-11-20T04:31:33;93785.56;;;16.59;80.86
39301;BME280;25019;42.626;23.380;2022-11-20T04:34:04;93782.81;;;16.51;82.12
39301;BME280;25019;42.626;23.380;2022-11-20T04:36:30;93711.03;;;16.11;82.63
39301;BME280;25019;42.626;23.380;2022-11-20T04:39:04;93787.94;;;16.61;84.25
39301;BME280;25019;42.626;23.380;2022-11-20T04:41:32;93775.47;;;16.42;85.35
39301;BME280;25019;42.626;23.380;2022-11-20T04:44:00;93781.72;;;16.52;85.23
39301;BME280;25019;42.626;23.380;2022-11-20T04:46:33;93785.91;;;16.44;85.09
39301;BME280;25019;42.626;23.380;2022-11-20T04:48:59;93763.47;;;16.26;85.99
39301;BME280;25019;42.626;23.380;2022-11-20T04:51:25;93701.31;;;16.01;84.84
39301;BME280;25019;42.626;23.380;2022-11-20T04:53:51;93745.81;;;16.25;85.57
39301;BME280;25019;42.626;23.380;2022-11-20T04:56:17;93777.47;;;16.37;85.74
39301;BME280;25019;42.626;23.380;2022-11-20T04:58:43;93773.88;;;16.41;86.03
39301;BME280;25019;42.626;23.380;2022-11-20T05:01:21;93764.91;;;16.46;85.62
39301;BME280;25019;42.626;23.380;2022-11-20T05:03:47;93727.94;;;16.20;85.04
39301;BME280;25019;42.626;23.380;2022-11-20T05:06:15;93751.53;;;16.46;86.78
39301;BME280;25019;42.626;23.380;2022-11-20T05:08:41;93756.13;;;16.17;92.50
39301;BME280;25019;42.626;23.380;2022-11-20T05:11:09;93781.44;;;15.97;95.07
39301;BME280;25019;42.626;23.380;2022-11-20T05:13:35;93774.69;;;15.86;95.55
39301;BME280;25019;42.626;23.380;2022-11-20T05:16:26;93700.16;;;15.32;98.23
39301;BME280;25019;42.626;23.380;2022-11-20T05:18:52;93744.63;;;15.61;100.00
39301;BME280;25019;42.626;23.380;2022-11-20T05:21:19;93750.91;;;15.51;100.00
39301;BME280;25019;42.626;23.380;2022-11-20T05:23:46;93732.31;;;15.46;100.00
39301;BME280;25019;42.626;23.380;2022-11-20T05:26:21;93748.63;;;15.45;100.00
39301;BME280;25019;42.626;23.380;2022-11-20T05:28:48;93751.50;;;15.48;100.00
39301;BME280;25019;42.626;23.380;2022-11-20T05:31:16;93757.34;;;15.50;100.00
39301;BME280;25019;42.626;23.380;2022-11-20T05:33:44;93752.66;;;15.28;100.00
39301;BME280;25019;42.626;23.380;2022-11-20T05:36:11;93759.75;;;15.19;100.00
39301;BME280;25019;42.626;23.380;2022-11-20T05:38:37;93710.78;;;14.90;100.00
39301;BME280;25019;42.626;23.380;2022-11-20T05:41:08;93721.94;;;14.92;100.00
39301;BME280;25019;42.626;23.380;2022-11-20T05:43:35;93751.41;;;15.06;100.00
39301;BME280;25019;42.626;23.380;2022-11-20T05:46:01;93689.44;;;14.66;100.00
39301;BME280;25019;42.626;23.380;2022-11-20T05:48:27;93737.91;;;14.97;100.00
39301;BME280;25019;42.626;23.380;2022-11-20T05:50:52;93663.91;;;14.41;100.00
39301;BME280;25019;42.626;23.380;2022-11-20T05:53:18;93740.56;;;14.97;100.00
39301;BME280;25019;42.626;23.380;2022-11-20T05:55:43;93709.25;;;14.84;100.00
39301;BME280;25019;42.626;23.380;2022-11-20T05:58:09;93735.09;;;14.89;100.00
39301;BME280;25019;42.626;23.380;2022-11-20T06:00:35;93720.44;;;14.67;100.00
39301;BME280;25019;42.626;23.380;2022-11-20T06:03:01;93736.75;;;14.85;100.00
39301;BME280;25019;42.626;23.380;2022-11-20T06:05:26;93638.31;;;14.20;100.00
39301;BME280;25019;42.626;23.380;2022-11-20T06:07:52;93675.78;;;14.34;100.00
39301;BME280;25019;42.626;23.380;2022-11-20T06:10:18;93745.88;;;14.83;100.00
39301;BME280;25019;42.626;23.380;2022-11-20T06:12:44;93724.84;;;14.77;100.00
39301;BME280;25019;42.626;23.380;2022-11-20T06:15:09;93751.44;;;14.87;100.00
39301;BME280;25019;42.626;23.380;2022-11-20T06:17:35;93661.09;;;14.32;100.00
39301;BME280;25019;42.626;23.380;2022-11-20T06:20:01;93738.84;;;14.88;100.00
39301;BME280;25019;42.626;23.380;2022-11-20T06:22:26;93690.91;;;14.58;100.00
39301;BME280;25019;42.626;23.380;2022-11-20T06:24:52;93736.13;;;14.93;100.00
39301;BME280;25019;42.626;23.380;2022-11-20T06:27:18;93713.59;;;14.80;100.00
39301;BME280;25019;42.626;23.380;2022-11-20T06:29:43;93759.72;;;15.05;100.00
39301;BME280;25019;42.626;23.380;2022-11-20T06:32:09;93766.00;;;15.14;100.00
39301;BME280;25019;42.626;23.380;2022-11-20T06:34:35;93770.16;;;15.20;100.00
39301;BME280;25019;42.626;23.380;2022-11-20T06:37:00;93762.56;;;15.27;100.00
39301;BME280;25019;42.626;23.380;2022-11-20T06:39:26;93682.81;;;14.82;100.00
39301;BME280;25019;42.626;23.380;2022-11-20T06:41:51;93660.22;;;14.75;100.00
39301;BME280;25019;42.626;23.380;2022-11-20T06:44:17;93754.56;;;15.41;100.00
39301;BME280;25019;42.626;23.380;2022-11-20T06:46:43;93742.38;;;15.35;100.00
39301;BME280;25019;42.626;23.380;2022-11-20T06:49:08;93738.75;;;15.45;100.00
39301;BME280;25019;42.626;23.380;2022-11-20T06:51:34;93658.66;;;14.88;100.00
39301;BME280;25019;42.626;23.380;2022-11-20T06:53:59;93679.91;;;15.12;100.00
39301;BME280;25019;42.626;23.380;2022-11-20T06:56:26;93764.31;;;15.65;100.00
39301;BME280;25019;42.626;23.380;2022-11-20T06:58:52;93767.41;;;15.72;100.00
39301;BME280;25019;42.626;23.380;2022-11-20T07:01:17;93763.94;;;15.72;100.00
39301;BME280;25019;42.626;23.380;2022-11-20T07:03:43;93769.91;;;15.83;100.00
39301;BME280;25019;42.626;23.380;2022-11-20T07:06:09;93785.50;;;15.95;100.00
39301;BME280;25019;42.626;23.380;2022-11-20T07:08:35;93731.22;;;15.61;99.70
39301;BME280;25019;42.626;23.380;2022-11-20T07:11:03;93791.97;;;16.08;99.96
39301;BME280;25019;42.626;23.380;2022-11-20T07:13:29;93746.31;;;15.71;98.54
39301;BME280;25019;42.626;23.380;2022-11-20T07:15:59;93787.00;;;16.01;97.94
39301;BME280;25019;42.626;23.380;2022-11-20T07:18:25;93779.34;;;16.08;98.19
39301;BME280;25019;42.626;23.380;2022-11-20T07:20:50;93765.06;;;15.85;97.55
39301;BME280;25019;42.626;23.380;2022-11-20T07:23:16;93778.25;;;15.95;96.97
39301;BME280;25019;42.626;23.380;2022-11-20T07:25:42;93756.75;;;15.86;96.91
39301;BME280;25019;42.626;23.380;2022-11-20T07:28:07;93778.06;;;16.06;96.43
39301;BME280;25019;42.626;23.380;2022-11-20T07:30:33;93777.25;;;16.05;96.49
39301;BME280;25019;42.626;23.380;2022-11-20T07:32:59;93784.44;;;16.10;96.91
39301;BME280;25019;42.626;23.380;2022-11-20T07:35:24;93781.53;;;16.06;97.47
39301;BME280;25019;42.626;23.380;2022-11-20T07:37:50;93783.34;;;16.11;96.49
39301;BME280;25019;42.626;23.380;2022-11-20T07:40:16;93784.53;;;16.18;95.91
39301;BME280;25019;42.626;23.380;2022-11-20T07:42:49;93764.38;;;16.07;95.17
39301;BME280;25019;42.626;23.380;2022-11-20T07:45:17;93766.47;;;16.10;95.15
39301;BME280;25019;42.626;23.380;2022-11-20T07:47:43;93766.47;;;16.10;94.83
39301;BME280;25019;42.626;23.380;2022-11-20T07:50:08;93731.56;;;15.87;95.21
39301;BME280;25019;42.626;23.380;2022-11-20T07:52:34;93783.03;;;16.12;95.92
39301;BME280;25019;42.626;23.380;2022-11-20T07:55:00;93785.59;;;16.17;96.23
39301;BME280;25019;42.626;23.380;2022-11-20T07:57:25;93690.66;;;15.40;96.44
39301;BME280;25019;42.626;23.380;2022-11-20T07:59:51;93687.19;;;15.39;96.90
39301;BME280;25019;42.626;23.380;2022-11-20T08:02:17;93779.25;;;15.99;96.76
39301;BME280;25019;42.626;23.380;2022-11-20T08:04:42;93769.03;;;16.01;96.57
39301;BME280;25019;42.626;23.380;2022-11-20T08:07:08;93788.78;;;16.20;96.25
39301;BME280;25019;42.626;23.380;2022-11-20T08:09:34;93788.09;;;16.14;94.08
39301;BME280;25019;42.626;23.380;2022-11-20T08:11:59;93771.81;;;16.10;94.33
39301;BME280;25019;42.626;23.380;2022-11-20T08:14:43;93769.22;;;16.19;93.82
39301;BME280;25019;42.626;23.380;2022-11-20T08:17:09;93775.19;;;16.30;93.47
39301;BME280;25019;42.626;23.380;2022-11-20T08:19:35;93719.84;;;15.97;92.39
39301;BME280;25019;42.626;23.380;2022-11-20T08:22:00;93742.53;;;16.28;91.05
39301;BME280;25019;42.626;23.380;2022-11-20T08:24:26;93763.44;;;16.54;89.93
39301;BME280;25019;42.626;23.380;2022-11-20T08:26:52;93701.69;;;16.08;88.97
39301;BME280;25019;42.626;23.380;2022-11-20T08:29:18;93720.41;;;16.22;87.21
39301;BME280;25019;42.626;23.380;2022-11-20T08:31:44;93729.31;;;16.45;86.47
39301;BME280;25019;42.626;23.380;2022-11-20T08:34:09;93739.19;;;16.59;85.97
39301;BME280;25019;42.626;23.380;2022-11-20T08:36:38;93793.53;;;17.01;86.01
39301;BME280;25019;42.626;23.380;2022-11-20T08:39:04;93786.75;;;17.04;84.82
39301;BME280;25019;42.626;23.380;2022-11-20T08:41:30;93782.19;;;17.04;85.11
39301;BME280;25019;42.626;23.380;2022-11-20T08:43:59;93805.72;;;17.07;83.65
39301;BME280;25019;42.626;23.380;2022-11-20T08:46:26;93791.63;;;17.02;83.73
39301;BME280;25019;42.626;23.380;2022-11-20T08:48:53;93819.69;;;17.18;84.19
39301;BME280;25019;42.626;23.380;2022-11-20T08:51:19;93764.84;;;16.74;83.22
39301;BME280;25019;42.626;23.380;2022-11-20T08:53:45;93843.25;;;17.21;84.04
39301;BME280;25019;42.626;23.380;2022-11-20T08:56:13;93767.22;;;16.53;84.73
39301;BME280;25019;42.626;23.380;2022-11-20T08:58:38;93831.47;;;16.95;87.06
39301;BME280;25019;42.626;23.380;2022-11-20T09:01:04;93797.44;;;16.67;87.88
39301;BME280;25019;42.626;23.380;2022-11-20T09:03:30;93812.03;;;16.75;89.14
39301;BME280;25019;42.626;23.380;2022-11-20T09:05:59;93834.78;;;16.77;88.42
39301;BME280;25019;42.626;23.380;2022-11-20T09:08:26;93815.53;;;16.61;88.24
39301;BME280;25019;42.626;23.380;2022-11-20T09:10:53;93821.31;;;16.55;90.52
39301;BME280;25019;42.626;23.380;2022-11-20T09:13:20;93829.16;;;16.51;89.50
39301;BME280;25019;42.626;23.380;2022-11-20T09:15:46;93775.50;;;16.00;92.10
39301;BME280;25019;42.626;23.380;2022-11-20T09:18:12;93828.06;;;16.24;97.35
39301;BME280;25019;42.626;23.380;2022-11-20T09:20:38;93714.75;;;15.40;99.58
39301;BME280;25019;42.626;23.380;2022-11-20T09:23:03;93812.78;;;16.11;100.00
39301;BME280;25019;42.626;23.380;2022-11-20T09:25:29;93760.69;;;15.75;99.79
39301;BME280;25019;42.626;23.380;2022-11-20T09:27:56;93809.22;;;16.01;100.00
39301;BME280;25019;42.626;23.380;2022-11-20T09:30:21;93722.97;;;15.57;100.00
39301;BME280;25019;42.626;23.380;2022-11-20T09:32:47;93822.63;;;16.29;100.00
39301;BME280;25019;42.626;23.380;2022-11-20T09:35:12;93816.84;;;16.36;99.20
39301;BME280;25019;42.626;23.380;2022-11-20T09:37:40;93737.31;;;15.95;100.00
39301;BME280;25019;42.626;23.380;2022-11-20T09:40:06;93812.97;;;16.56;100.00
39301;BME280;25019;42.626;23.380;2022-11-20T09:42:35;93810.97;;;16.62;100.00
39301;BME280;25019;42.626;23.380;2022-11-20T09:50:46;93812.50;;;16.26;100.00
39301;BME280;25019;42.626;23.380;2022-11-20T09:53:23;93800.41;;;16.01;98.88
39301;BME280;25019;42.626;23.380;2022-11-20T09:55:54;93760.69;;;15.75;99.87
39301;BME280;25019;42.626;23.380;2022-11-20T09:58:35;93809.03;;;15.98;100.00
39301;BME280;25019;42.626;23.380;2022-11-20T10:01:12;93796.06;;;15.72;100.00
39301;BME280;25019;42.626;23.380;2022-11-20T10:06:13;93791.56;;;16.28;100.00
39301;BME280;25019;42.626;23.380;2022-11-20T10:08:45;93802.16;;;16.47;100.00
39301;BME280;25019;42.626;23.380;2022-11-20T10:11:24;93716.47;;;16.06;99.67
39301;BME280;25019;42.626;23.380;2022-11-20T10:16:58;93775.47;;;15.86;100.00
39301;BME280;25019;42.626;23.380;2022-11-20T10:19:47;93749.22;;;15.88;100.00
39301;BME280;25019;42.626;23.380;2022-11-20T10:25:13;93747.81;;;15.91;100.00
39301;BME280;25019;42.626;23.380;2022-11-20T10:27:52;93767.44;;;15.86;100.00
39301;BME280;25019;42.626;23.380;2022-11-20T10:30:21;93753.47;;;16.03;100.00
39301;BME280;25019;42.626;23.380;2022-11-20T10:32:52;93768.03;;;16.11;100.00
39301;BME280;25019;42.626;23.380;2022-11-20T10:35:39;93771.31;;;16.22;100.00
39301;BME280;25019;42.626;23.380;2022-11-20T10:38:25;93747.63;;;16.01;100.00
39301;BME280;25019;42.626;23.380;2022-11-20T10:40:57;93766.19;;;15.98;100.00
39301;BME280;25019;42.626;23.380;2022-11-20T10:43:46;93766.41;;;15.68;100.00
39301;BME280;25019;42.626;23.380;2022-11-20T10:46:18;93727.25;;;15.11;100.00
39301;BME280;25019;42.626;23.380;2022-11-20T10:48:47;93697.13;;;14.73;100.00
39301;BME280;25019;42.626;23.380;2022-11-20T10:54:06;93787.47;;;15.09;100.00
39301;BME280;25019;42.626;23.380;2022-11-20T10:56:40;93738.09;;;14.87;100.00
39301;BME280;25019;42.626;23.380;2022-11-20T11:02:12;93790.00;;;15.19;100.00
39301;BME280;25019;42.626;23.380;2022-11-20T11:04:43;93804.53;;;15.13;100.00
39301;BME280;25019;42.626;23.380;2022-11-20T11:07:15;93811.47;;;15.14;100.00
39301;BME280;25019;42.626;23.380;2022-11-20T11:09:53;93818.50;;;14.66;100.00
39301;BME280;25019;42.626;23.380;2022-11-20T11:12:25;93831.78;;;14.52;100.00
39301;BME280;25019;42.626;23.380;2022-11-20T11:14:56;93847.91;;;14.66;100.00
39301;BME280;25019;42.626;23.380;2022-11-20T11:17:30;93839.13;;;14.42;100.00
39301;BME280;25019;42.626;23.380;2022-11-20T11:20:32;93874.22;;;14.35;100.00
39301;BME280;25019;42.626;23.380;2022-11-20T11:22:56;93813.75;;;13.71;100.00
39301;BME280;25019;42.626;23.380;2022-11-20T11:25:32;93850.81;;;14.02;100.00
39301;BME280;25019;42.626;23.380;2022-11-20T11:28:26;93799.56;;;13.46;100.00
39301;BME280;25019;42.626;23.380;2022-11-20T11:30:52;93824.34;;;13.47;100.00
39301;BME280;25019;42.626;23.380;2022-11-20T11:33:23;93819.31;;;13.40;100.00
39301;BME280;25019;42.626;23.380;2022-11-20T11:35:55;93851.06;;;13.42;100.00
39301;BME280;25019;42.626;23.380;2022-11-20T11:38:36;93862.63;;;13.27;100.00
39301;BME280;25019;42.626;23.380;2022-11-20T11:41:04;93862.72;;;13.11;100.00
39301;BME280;25019;42.626;23.380;2022-11-20T11:43:32;93862.56;;;12.97;100.00
39301;BME280;25019;42.626;23.380;2022-11-20T11:57:01;93772.78;;;11.82;100.00
39301;BME280;25019;42.626;23.380;2022-11-20T12:05:04;93674.81;;;11.23;100.00
39301;BME280;25019;42.626;23.380;2022-11-20T12:07:46;93800.16;;;11.98;100.00
39301;BME280;25019;42.626;23.380;2022-11-20T12:10:23;93731.94;;;11.42;100.00
39301;BME280;25019;42.626;23.380;2022-11-20T12:13:01;93808.44;;;11.81;100.00
39301;BME280;25019;42.626;23.380;2022-11-20T12:15:31;93798.34;;;11.78;100.00
39301;BME280;25019;42.626;23.380;2022-11-20T12:17:58;93812.72;;;11.66;100.00
39301;BME280;25019;42.626;23.380;2022-11-20T12:20:28;93819.63;;;11.67;100.00
39301;BME280;25019;42.626;23.380;2022-11-20T12:23:18;93738.34;;;11.04;100.00
39301;BME280;25019;42.626;23.380;2022-11-20T12:25:48;93836.94;;;11.54;100.00
39301;BME280;25019;42.626;23.380;2022-11-20T12:29:02;93826.59;;;11.43;100.00
39301;BME280;25019;42.626;23.380;2022-11-20T12:34:27;93840.69;;;11.33;100.00
39301;BME280;25019;42.626;23.380;2022-11-20T12:37:04;93824.72;;;11.22;100.00
39301;BME280;25019;42.626;23.380;2022-11-20T12:39:35;93828.44;;;11.27;100.00
39301;BME280;25019;42.626;23.380;2022-11-20T12:42:34;93782.19;;;11.28;100.00
39301;BME280;25019;42.626;23.380;2022-11-20T13:00:18;93717.88;;;11.31;100.00
39301;BME280;25019;42.626;23.380;2022-11-20T13:07:27;93686.94;;;11.61;100.00
39301;BME280;25019;42.626;23.380;2022-11-20T13:09:53;93680.56;;;11.57;100.00
39301;BME280;25019;42.626;23.380;2022-11-20T13:12:33;93710.81;;;11.76;100.00
39301;BME280;25019;42.626;23.380;2022-11-20T13:17:59;93731.78;;;11.88;100.00
39301;BME280;25019;42.626;23.380;2022-11-20T13:20:26;93751.47;;;11.92;100.00
39301;BME280;25019;42.626;23.380;2022-11-20T13:22:54;93732.31;;;11.85;100.00
39301;BME280;25019;42.626;23.380;2022-11-20T13:25:31;93754.41;;;11.91;100.00
39301;BME280;25019;42.626;23.380;2022-11-20T13:27:59;93750.91;;;11.95;100.00
39301;BME280;25019;42.626;23.380;2022-11-20T13:30:27;93737.69;;;11.75;100.00
39301;BME280;25019;42.626;23.380;2022-11-20T13:33:08;93777.78;;;11.99;100.00
39301;BME280;25019;42.626;23.380;2022-11-20T13:35:55;93758.91;;;12.06;100.00
39301;BME280;25019;42.626;23.380;2022-11-20T13:38:21;93769.00;;;12.09;100.00
39301;BME280;25019;42.626;23.380;2022-11-20T13:40:56;93771.16;;;12.02;100.00
39301;BME280;25019;42.626;23.380;2022-11-20T13:43:38;93769.31;;;11.92;100.00
39301;BME280;25019;42.626;23.380;2022-11-20T13:46:07;93785.25;;;11.92;100.00
39301;BME280;25019;42.626;23.380;2022-11-20T13:48:41;93747.78;;;11.78;100.00
39301;BME280;25019;42.626;23.380;2022-11-20T14:02:19;93754.50;;;11.60;100.00
39301;BME280;25019;42.626;23.380;2022-11-20T14:04:49;93805.75;;;11.86;100.00
39301;BME280;25019;42.626;23.380;2022-11-20T14:07:17;93798.81;;;11.95;100.00
39301;BME280;25019;42.626;23.380;2022-11-20T14:09:55;93789.75;;;11.96;100.00